createdAt,value
2022-12-16T00:00:11.700Z,51.10
2022-12-16T00:02:39.110Z,62.70
2022-12-16T00:05:07.064Z,61.23
2022-12-16T00:07:35.338Z,52.83
2022-12-16T00:10:02.793Z,64.50
2022-12-16T00:12:30.140Z,72.27
2022-12-16T00:14:57.396Z,58.50
2022-12-16T00:17:24.630Z,63.23
2022-12-16T00:19:52.012Z,58.87
2022-12-16T00:22:19.539Z,65.67
2022-12-16T00:24:46.754Z,59.40
2022-12-16T00:27:13.999Z,50.70
2022-12-16T00:29:41.345Z,68.57
2022-12-16T00:32:08.669Z,60.97
2022-12-16T00:34:35.955Z,54.70
2022-12-16T00:37:03.345Z,73.70
2022-12-16T00:39:30.721Z,68.00
2022-12-16T00:41:58.018Z,56.63
2022-12-16T00:44:25.449Z,66.03
2022-12-16T00:46:52.707Z,62.07
2022-12-16T00:49:22.266Z,62.90
2022-12-16T00:51:49.639Z,65.97
2022-12-16T00:54:17.846Z,59.00
2022-12-16T00:56:45.077Z,58.23
2022-12-16T00:59:12.368Z,64.03
2022-12-16T01:01:39.752Z,61.63
2022-12-16T01:04:07.123Z,58.67
2022-12-16T01:06:34.426Z,57.33
2022-12-16T01:09:01.691Z,52.87
2022-12-16T01:11:28.927Z,58.77
2022-12-16T01:13:56.300Z,60.70
2022-12-16T01:16:23.788Z,63.10
2022-12-16T01:18:51.100Z,56.20
2022-12-16T01:21:18.384Z,54.80
2022-12-16T01:23:48.070Z,50.40
2022-12-16T01:26:18.184Z,50.03
2022-12-16T01:28:48.030Z,52.00
2022-12-16T01:31:18.568Z,53.30
2022-12-16T01:33:46.348Z,57.03
2022-12-16T01:36:13.619Z,58.67
2022-12-16T01:38:42.400Z,51.43
2022-12-16T01:41:11.099Z,58.70
2022-12-16T01:43:40.284Z,59.93
2022-12-16T01:46:19.961Z,60.53
2022-12-16T01:48:52.626Z,63.50
2022-12-16T01:51:30.744Z,62.30
2022-12-16T01:56:56.535Z,58.17
2022-12-16T01:59:25.532Z,54.80
2022-12-16T02:01:53.423Z,54.63
2022-12-16T02:04:21.519Z,59.47
2022-12-16T02:06:49.313Z,71.90
2022-12-16T02:09:17.787Z,67.63
2022-12-16T02:15:13.449Z,63.93
2022-12-16T02:18:12.193Z,61.53
2022-12-16T02:20:51.407Z,61.30
2022-12-16T02:23:57.123Z,65.07
2022-12-16T02:26:56.974Z,60.27
2022-12-16T02:30:01.936Z,64.37
2022-12-16T02:33:01.137Z,58.90
2022-12-16T02:35:39.844Z,59.63
2022-12-16T02:38:26.497Z,69.17
2022-12-16T02:41:21.183Z,74.80
2022-12-16T02:46:53.480Z,68.37
2022-12-16T02:49:22.805Z,70.43
2022-12-16T02:51:50.385Z,66.83
2022-12-16T02:54:18.956Z,72.17
2022-12-16T02:56:52.283Z,66.83
2022-12-16T02:59:40.266Z,70.00
2022-12-16T03:02:32.004Z,65.73
2022-12-16T03:05:31.411Z,63.10
2022-12-16T03:08:02.806Z,64.00
2022-12-16T03:10:39.380Z,62.03
2022-12-16T03:13:08.846Z,58.67
2022-12-16T03:15:36.619Z,67.43
2022-12-16T03:21:07.968Z,61.60
2022-12-16T03:23:48.006Z,76.60
2022-12-16T03:26:35.269Z,69.77
2022-12-16T03:29:10.077Z,66.20
2022-12-16T03:31:42.712Z,73.00
2022-12-16T03:37:13.702Z,65.47
2022-12-16T03:39:51.434Z,67.03
2022-12-16T03:42:18.733Z,63.63
2022-12-16T03:44:47.720Z,69.70
2022-12-16T03:47:21.497Z,68.77
2022-12-16T03:49:51.095Z,59.27
2022-12-16T03:55:03.164Z,68.73
2022-12-16T03:57:30.355Z,61.33
2022-12-16T03:59:57.546Z,63.60
2022-12-16T04:02:24.954Z,63.00
2022-12-16T04:04:52.421Z,68.83
2022-12-16T04:10:10.201Z,68.50
2022-12-16T04:12:56.038Z,72.20
2022-12-16T04:15:42.438Z,67.73
2022-12-16T04:18:35.424Z,65.73
2022-12-16T04:21:22.485Z,62.47
2022-12-16T04:27:17.628Z,52.50
2022-12-16T04:30:03.376Z,60.83
2022-12-16T04:32:51.743Z,59.50
2022-12-16T04:35:37.441Z,65.73
2022-12-16T04:38:23.688Z,60.50
2022-12-16T04:44:12.738Z,55.47
2022-12-16T04:46:58.772Z,52.90
2022-12-16T04:49:44.347Z,55.23
2022-12-16T04:52:30.462Z,60.40
2022-12-16T04:55:16.568Z,61.27
2022-12-16T05:01:21.970Z,56.13
2022-12-16T05:04:07.864Z,55.57
2022-12-16T05:06:53.568Z,62.67
2022-12-16T05:09:39.606Z,64.73
2022-12-16T05:12:25.085Z,70.10
2022-12-16T05:15:10.704Z,66.70
2022-12-16T05:17:56.515Z,63.40
2022-12-16T05:20:42.286Z,73.37
2022-12-16T05:23:28.247Z,72.43
2022-12-16T05:26:34.157Z,73.17
2022-12-16T05:29:20.249Z,65.23
2022-12-16T05:35:09.585Z,68.03
2022-12-16T05:37:55.286Z,68.33
2022-12-16T05:40:40.852Z,67.50
2022-12-16T05:43:26.690Z,60.73
2022-12-16T05:46:16.130Z,78.07
2022-12-16T05:49:02.221Z,61.43
2022-12-16T05:51:48.077Z,68.53
2022-12-16T05:54:33.657Z,89.23
2022-12-16T05:57:19.509Z,67.03
2022-12-16T06:00:05.156Z,72.10
2022-12-16T06:02:57.252Z,68.23
2022-12-16T06:05:43.023Z,68.60
2022-12-16T06:08:29.213Z,59.20
2022-12-16T06:11:14.889Z,68.50
2022-12-16T06:14:00.634Z,73.67
2022-12-16T06:16:46.460Z,60.43
2022-12-16T06:19:32.170Z,55.40
2022-12-16T06:22:18.160Z,65.43
2022-12-16T06:25:03.764Z,59.83
2022-12-16T06:27:49.328Z,47.87
2022-12-16T06:30:35.034Z,57.23
2022-12-16T06:33:20.595Z,62.83
2022-12-16T06:36:06.529Z,50.17
2022-12-16T06:38:52.183Z,62.83
2022-12-16T06:41:37.996Z,63.77
2022-12-16T06:44:23.475Z,54.33
2022-12-16T06:47:09.002Z,58.83
2022-12-16T06:49:54.695Z,60.97
2022-12-16T06:52:40.325Z,56.80
2022-12-16T06:55:26.807Z,62.73
2022-12-16T06:58:16.943Z,59.30
2022-12-16T07:01:02.908Z,63.90
2022-12-16T07:03:49.312Z,67.23
2022-12-16T07:06:35.315Z,69.00
2022-12-16T07:09:22.059Z,81.03
2022-12-16T07:12:07.816Z,72.57
2022-12-16T07:14:53.497Z,58.27
2022-12-16T07:17:39.330Z,68.80
2022-12-16T07:20:25.564Z,70.60
2022-12-16T07:23:17.780Z,80.90
2022-12-16T07:26:05.825Z,78.93
2022-12-16T07:28:51.416Z,80.73
2022-12-16T07:31:37.219Z,76.93
2022-12-16T07:34:23.178Z,77.30
2022-12-16T07:37:08.908Z,69.13
2022-12-16T07:39:57.530Z,71.63
2022-12-16T07:42:43.152Z,79.57
2022-12-16T07:45:45.302Z,71.73
2022-12-16T07:48:31.311Z,74.23
2022-12-16T07:51:17.305Z,71.87
2022-12-16T07:54:03.220Z,65.53
2022-12-16T07:56:49.371Z,62.87
2022-12-16T07:59:35.027Z,63.67
2022-12-16T08:02:20.991Z,64.60
2022-12-16T08:05:06.628Z,60.77
2022-12-16T08:07:52.449Z,59.40
2022-12-16T08:10:38.170Z,56.33
2022-12-16T08:13:26.107Z,62.97
2022-12-16T08:16:12.127Z,58.63
2022-12-16T08:18:57.991Z,61.13
2022-12-16T08:21:43.676Z,63.27
2022-12-16T08:24:29.453Z,58.80
2022-12-16T08:27:15.133Z,60.80
2022-12-16T08:30:00.932Z,53.13
2022-12-16T08:32:46.764Z,56.37
2022-12-16T08:35:32.885Z,64.63
2022-12-16T08:38:18.895Z,57.20
2022-12-16T08:41:05.197Z,61.03
2022-12-16T08:43:53.397Z,56.17
2022-12-16T08:46:41.243Z,71.70
2022-12-16T08:49:27.578Z,59.20
2022-12-16T08:52:13.920Z,61.30
2022-12-16T08:55:00.562Z,63.67
2022-12-16T08:57:46.407Z,64.37
2022-12-16T09:00:35.727Z,61.97
2022-12-16T09:03:21.524Z,57.07
2022-12-16T09:06:10.995Z,61.13
2022-12-16T09:08:56.788Z,57.93
2022-12-16T09:11:43.041Z,64.70
2022-12-16T09:14:32.215Z,66.17
2022-12-16T09:17:18.351Z,68.33
2022-12-16T09:20:03.973Z,73.23
2022-12-16T09:22:49.720Z,67.00
2022-12-16T09:25:36.094Z,70.17
2022-12-16T09:28:22.264Z,58.83
2022-12-16T09:31:08.123Z,63.27
2022-12-16T09:33:54.822Z,68.80
2022-12-16T09:36:41.676Z,65.00
2022-12-16T09:39:27.444Z,53.23
2022-12-16T09:42:20.361Z,55.10
2022-12-16T09:45:36.687Z,58.23
2022-12-16T09:48:40.355Z,55.97
2022-12-16T09:51:28.334Z,60.27
2022-12-16T09:54:16.172Z,61.73
2022-12-16T09:57:03.525Z,56.97
2022-12-16T09:59:54.950Z,70.80
2022-12-16T10:02:43.542Z,76.73
2022-12-16T10:05:33.199Z,66.03
2022-12-16T10:08:33.093Z,69.60
2022-12-16T10:11:30.738Z,66.93
2022-12-16T10:14:23.670Z,62.67
2022-12-16T10:17:21.955Z,59.43
2022-12-16T10:20:34.033Z,74.20
2022-12-16T10:23:46.758Z,66.30
2022-12-16T10:27:03.586Z,63.47
2022-12-16T10:29:53.017Z,62.93
2022-12-16T10:33:04.276Z,62.67
2022-12-16T10:36:09.717Z,60.13
2022-12-16T10:39:10.420Z,69.43
2022-12-16T10:42:00.180Z,73.10
2022-12-16T10:44:58.302Z,58.87
2022-12-16T10:47:44.261Z,61.60
2022-12-16T10:50:34.005Z,63.00
2022-12-16T10:53:23.784Z,64.87
2022-12-16T10:56:47.387Z,63.97
2022-12-16T10:59:33.560Z,62.77
2022-12-16T11:02:37.082Z,66.53
2022-12-16T11:05:43.560Z,66.37
2022-12-16T11:08:50.904Z,60.73
2022-12-16T11:11:49.165Z,62.47
2022-12-16T11:14:36.824Z,64.60
2022-12-16T11:17:34.605Z,72.83
2022-12-16T11:20:44.620Z,59.47
2022-12-16T11:23:42.742Z,60.40
2022-12-16T11:26:37.399Z,51.83
2022-12-16T11:29:34.399Z,49.20
2022-12-16T11:32:20.208Z,51.00
2022-12-16T11:35:14.148Z,50.37
2022-12-16T11:38:01.945Z,45.77
2022-12-16T11:40:49.643Z,61.77
2022-12-16T11:43:37.970Z,64.60
2022-12-16T11:46:38.384Z,54.90
2022-12-16T11:49:33.156Z,52.13
2022-12-16T11:52:36.803Z,52.47
2022-12-16T11:56:05.949Z,52.90
2022-12-16T11:59:05.022Z,54.57
2022-12-16T12:01:57.978Z,53.47
2022-12-16T12:04:43.926Z,56.83
2022-12-16T12:07:44.904Z,51.07
2022-12-16T12:10:41.812Z,50.97
2022-12-16T12:13:46.203Z,52.27
2022-12-16T12:16:52.846Z,49.97
2022-12-16T12:19:53.927Z,54.97
2022-12-16T12:22:53.267Z,56.60
2022-12-16T12:25:59.040Z,47.27
2022-12-16T12:28:58.065Z,54.73
2022-12-16T12:31:53.044Z,51.27
2022-12-16T12:34:52.565Z,45.43
2022-12-16T12:37:43.170Z,49.97
2022-12-16T12:41:07.284Z,49.13
2022-12-16T12:44:09.039Z,46.17
2022-12-16T12:47:03.474Z,44.03
2022-12-16T12:50:09.513Z,43.50
2022-12-16T12:53:17.475Z,44.53
2022-12-16T12:56:09.379Z,49.87
2022-12-16T12:58:57.664Z,52.53
2022-12-16T13:01:49.832Z,50.37
2022-12-16T13:04:39.751Z,56.07
2022-12-16T13:07:27.234Z,53.60
2022-12-16T13:10:44.525Z,63.60
2022-12-16T13:13:33.912Z,54.13
2022-12-16T13:16:28.053Z,58.07
2022-12-16T13:19:48.264Z,54.13
2022-12-16T13:22:54.386Z,56.20
2022-12-16T13:26:07.710Z,56.17
2022-12-16T13:28:59.729Z,53.33
2022-12-16T13:31:49.027Z,44.60
2022-12-16T13:34:34.938Z,61.03
2022-12-16T13:37:28.587Z,52.77
2022-12-16T13:40:25.124Z,58.50
2022-12-16T13:43:13.189Z,52.53
2022-12-16T13:46:34.647Z,56.33
2022-12-16T13:50:11.961Z,49.67
2022-12-16T13:53:10.524Z,47.50
2022-12-16T13:56:03.391Z,52.93
2022-12-16T13:59:03.293Z,49.87
2022-12-16T14:02:06.541Z,52.30
2022-12-16T14:04:55.376Z,55.77
2022-12-16T14:07:45.022Z,53.57
2022-12-16T14:10:59.115Z,59.57
2022-12-16T14:13:53.033Z,58.63
2022-12-16T14:17:05.038Z,55.13
2022-12-16T14:20:16.060Z,53.47
2022-12-16T14:23:54.731Z,60.43
2022-12-16T14:26:34.977Z,65.67
2022-12-16T14:29:22.430Z,51.40
2022-12-16T14:32:08.521Z,55.73
2022-12-16T14:34:55.382Z,60.27
2022-12-16T14:37:56.037Z,56.03
2022-12-16T14:40:50.945Z,58.63
2022-12-16T14:43:42.369Z,53.90
2022-12-16T14:46:43.304Z,60.80
2022-12-16T14:49:43.549Z,64.83
2022-12-16T14:52:46.083Z,68.13
2022-12-16T14:55:38.777Z,62.03
2022-12-16T14:58:31.911Z,67.17
2022-12-16T15:01:32.197Z,68.90
2022-12-16T15:04:20.136Z,66.10
2022-12-16T15:07:11.584Z,62.97
2022-12-16T15:10:07.035Z,77.03
2022-12-16T15:13:05.473Z,67.50
2022-12-16T15:16:03.390Z,67.13
2022-12-16T15:18:53.737Z,56.00
2022-12-16T15:21:39.642Z,72.00
2022-12-16T15:24:33.912Z,58.30
2022-12-16T15:27:53.817Z,58.20
2022-12-16T15:30:56.270Z,59.27
2022-12-16T15:33:48.303Z,62.93
2022-12-16T15:36:47.316Z,66.03
2022-12-16T15:40:00.167Z,71.33
2022-12-16T15:42:49.088Z,72.50
2022-12-16T15:45:47.907Z,64.23
2022-12-16T15:48:39.225Z,67.47
2022-12-16T15:51:39.655Z,62.83
2022-12-16T15:54:39.717Z,61.03
2022-12-16T15:57:47.047Z,82.10
2022-12-16T16:00:42.729Z,65.00
2022-12-16T16:03:49.717Z,66.43
2022-12-16T16:06:45.140Z,75.47
2022-12-16T16:09:33.139Z,64.13
2022-12-16T16:12:18.983Z,68.53
2022-12-16T16:15:04.585Z,64.53
2022-12-16T16:17:50.635Z,65.40
2022-12-16T16:20:37.383Z,65.40
2022-12-16T16:23:23.696Z,67.57
2022-12-16T16:26:17.283Z,67.77
2022-12-16T16:29:03.055Z,73.63
2022-12-16T16:31:49.625Z,66.30
2022-12-16T16:34:36.220Z,63.73
2022-12-16T16:37:26.615Z,58.10
2022-12-16T16:40:12.850Z,64.20
2022-12-16T16:42:58.497Z,51.07
2022-12-16T16:45:44.895Z,63.67
2022-12-16T16:48:36.775Z,66.07
2022-12-16T16:51:23.081Z,69.37
2022-12-16T16:54:08.811Z,82.90
2022-12-16T16:56:56.223Z,65.17
2022-12-16T16:59:43.357Z,61.23
2022-12-16T17:02:41.698Z,73.03
2022-12-16T17:05:31.836Z,61.40
2022-12-16T17:08:17.577Z,74.00
2022-12-16T17:11:04.888Z,72.40
2022-12-16T17:13:50.700Z,72.77
2022-12-16T17:16:36.647Z,69.67
2022-12-16T17:19:22.966Z,61.73
2022-12-16T17:22:09.178Z,77.60
2022-12-16T17:24:55.229Z,79.87
2022-12-16T17:27:44.190Z,80.20
2022-12-16T17:30:41.918Z,68.10
2022-12-16T17:33:31.296Z,64.40
2022-12-16T17:36:17.319Z,74.90
2022-12-16T17:39:04.258Z,74.83
2022-12-16T17:41:51.924Z,75.73
2022-12-16T17:44:38.644Z,63.33
2022-12-16T17:47:24.532Z,62.50
2022-12-16T17:50:10.185Z,64.90
2022-12-16T17:52:56.505Z,53.63
2022-12-16T17:55:42.681Z,58.13
2022-12-16T17:58:31.016Z,52.83
2022-12-16T18:01:21.927Z,58.43
2022-12-16T18:04:11.556Z,59.33
2022-12-16T18:06:57.353Z,64.37
2022-12-16T18:09:43.664Z,49.57
2022-12-16T18:12:29.612Z,54.53
2022-12-16T18:15:15.381Z,52.47
2022-12-16T18:18:01.275Z,62.70
2022-12-16T18:20:47.209Z,47.10
2022-12-16T18:23:36.429Z,56.13
2022-12-16T18:26:25.621Z,50.33
2022-12-16T18:29:11.855Z,48.40
2022-12-16T18:31:57.925Z,51.43
2022-12-16T18:34:43.631Z,50.63
2022-12-16T18:37:31.670Z,54.07
2022-12-16T18:40:17.518Z,58.77
2022-12-16T18:43:05.202Z,47.80
2022-12-16T18:45:50.966Z,42.47
2022-12-16T18:48:38.746Z,62.10
2022-12-16T18:51:24.831Z,53.87
2022-12-16T18:54:11.077Z,59.80
2022-12-16T18:56:57.320Z,61.93
2022-12-16T18:59:43.236Z,56.10
2022-12-16T19:02:30.897Z,53.27
2022-12-16T19:05:28.139Z,56.03
2022-12-16T19:08:14.604Z,55.53
2022-12-16T19:11:01.299Z,50.03
2022-12-16T19:13:46.919Z,59.03
2022-12-16T19:16:35.679Z,59.93
2022-12-16T19:19:22.125Z,56.23
2022-12-16T19:22:08.430Z,54.20
2022-12-16T19:28:15.393Z,56.97
2022-12-16T19:31:01.746Z,63.10
2022-12-16T19:33:47.767Z,57.50
2022-12-16T19:36:33.593Z,70.77
2022-12-16T19:39:19.559Z,59.33
2022-12-16T19:42:05.340Z,56.43
2022-12-16T19:44:51.302Z,56.47
2022-12-16T19:47:37.422Z,60.00
2022-12-16T19:50:24.013Z,54.67
2022-12-16T19:53:10.051Z,62.03
2022-12-16T19:55:55.824Z,57.80
2022-12-16T19:58:44.051Z,52.37
2022-12-16T20:01:29.943Z,54.40
2022-12-16T20:04:15.823Z,58.63
2022-12-16T20:07:02.042Z,63.67
2022-12-16T20:09:51.758Z,63.17
2022-12-16T20:12:37.535Z,50.33
2022-12-16T20:15:28.322Z,66.13
2022-12-16T20:18:14.118Z,65.50
2022-12-16T20:20:59.774Z,71.03
2022-12-16T20:23:46.532Z,58.77
2022-12-16T20:26:32.804Z,62.50
2022-12-16T20:29:18.549Z,59.10
2022-12-16T20:32:04.825Z,57.37
2022-12-16T20:34:50.639Z,55.30
2022-12-16T20:37:37.360Z,53.47
2022-12-16T20:40:23.890Z,59.63
2022-12-16T20:43:10.117Z,63.90
2022-12-16T20:45:57.357Z,53.27
2022-12-16T20:48:43.060Z,54.17
2022-12-16T20:51:29.488Z,64.20
2022-12-16T20:54:15.897Z,57.00
2022-12-16T20:57:01.673Z,66.37
2022-12-16T20:59:47.634Z,61.77
2022-12-16T21:02:34.471Z,57.03
2022-12-16T21:05:21.677Z,61.27
2022-12-16T21:08:07.672Z,56.73
2022-12-16T21:10:55.984Z,57.77
2022-12-16T21:13:43.080Z,73.47
2022-12-16T21:16:32.113Z,75.43
2022-12-16T21:19:21.113Z,72.73
2022-12-16T21:22:06.980Z,72.93
2022-12-16T21:24:53.644Z,74.00
2022-12-16T21:27:39.650Z,83.03
2022-12-16T21:30:26.184Z,78.23
2022-12-16T21:33:12.427Z,88.33
2022-12-16T21:35:59.128Z,105.10
2022-12-16T21:38:48.642Z,83.80
2022-12-16T21:41:38.380Z,94.60
2022-12-16T21:44:24.434Z,85.00
2022-12-16T21:47:10.801Z,86.47
2022-12-16T21:49:59.756Z,84.13
2022-12-16T21:52:45.709Z,78.63
2022-12-16T21:55:31.979Z,100.77
2022-12-16T21:58:18.338Z,78.77
2022-12-16T22:01:05.000Z,90.13
2022-12-16T22:03:54.937Z,83.93
2022-12-16T22:06:48.235Z,73.03
2022-12-16T22:09:35.663Z,84.87
2022-12-16T22:12:22.323Z,80.17
2022-12-16T22:15:08.379Z,81.80
2022-12-16T22:17:58.481Z,84.50
2022-12-16T22:21:00.780Z,89.90
2022-12-16T22:23:48.556Z,92.33
2022-12-16T22:26:34.460Z,77.57
2022-12-16T22:29:20.648Z,96.87
2022-12-16T22:32:07.041Z,78.23
2022-12-16T22:34:52.822Z,76.17
2022-12-16T22:37:39.006Z,82.47
2022-12-16T22:40:25.623Z,71.77
2022-12-16T22:43:11.366Z,73.73
2022-12-16T22:45:57.257Z,79.43
2022-12-16T22:48:43.555Z,84.23
2022-12-16T22:51:31.271Z,84.67
2022-12-16T22:54:22.008Z,83.27
2022-12-16T22:57:07.910Z,76.10
2022-12-16T22:59:53.627Z,69.13
2022-12-16T23:02:39.320Z,94.87
2022-12-16T23:05:27.815Z,74.60
2022-12-16T23:08:14.723Z,75.10
2022-12-16T23:11:00.785Z,65.23
2022-12-16T23:13:47.212Z,71.53
2022-12-16T23:16:33.372Z,76.87
2022-12-16T23:19:19.023Z,81.93
2022-12-16T23:22:06.287Z,66.83
2022-12-16T23:24:52.103Z,68.23
2022-12-16T23:27:37.876Z,60.10
2022-12-16T23:30:24.212Z,62.60
2022-12-16T23:33:20.230Z,58.33
2022-12-16T23:36:06.385Z,60.43
2022-12-16T23:38:52.245Z,63.03
2022-12-16T23:41:39.053Z,53.03
2022-12-16T23:44:24.826Z,60.50
2022-12-16T23:47:10.512Z,54.63
2022-12-16T23:49:56.693Z,63.13
2022-12-16T23:52:42.354Z,60.57
2022-12-16T23:55:28.677Z,71.20
2022-12-16T23:58:22.613Z,60.80
